Time;durP1;ratioP1;P1;durP2;ratioP2;P2;SDS_P1;SDS_P2;PMS_P1;PMS_P2;Temp;Humidity;BMP_temperature;BMP_pressure;BME280_temperature;BME280_humidity;BME280_pressure;Samples;Min_cycle;Max_cycle;Signal;HPM_P1;HPM_P2
2023/01/06 00:02:11;;;;;;;0.30;0.30;;;4.80;99.90;;;;;;5034309;28;20187;-89
2023/01/06 00:04:36;;;;;;;0.30;0.30;;;4.80;99.90;;;;;;5047315;28;20265;-90
2023/01/06 00:07:02;;;;;;;0.37;0.37;;;4.80;99.90;;;;;;5034434;28;20273;-89
2023/01/06 00:09:27;;;;;;;0.33;0.33;;;4.80;99.90;;;;;;5051266;28;20198;-89
2023/01/06 00:11:53;;;;;;;0.30;0.30;;;4.70;99.90;;;;;;5050870;28;20195;-89
2023/01/06 00:14:21;;;;;;;0.30;0.30;;;4.70;99.90;;;;;;5052606;28;20175;-89
2023/01/06 00:16:47;;;;;;;0.30;0.30;;;4.70;99.90;;;;;;5038281;28;20704;-89
2023/01/06 00:19:12;;;;;;;0.30;0.30;;;4.80;99.90;;;;;;5035757;28;20445;-89
2023/01/06 00:21:38;;;;;;;0.30;0.30;;;4.70;99.90;;;;;;5051753;28;20186;-88
2023/01/06 00:24:04;;;;;;;0.40;0.40;;;4.80;99.90;;;;;;5028478;28;20242;-89
2023/01/06 00:26:29;;;;;;;0.30;0.30;;;4.80;99.90;;;;;;5042668;28;20229;-89
2023/01/06 00:28:55;;;;;;;0.33;0.33;;;4.80;99.90;;;;;;5055490;28;20214;-89
2023/01/06 00:31:21;;;;;;;0.30;0.30;;;4.80;99.90;;;;;;5044574;28;20233;-89
2023/01/06 00:33:47;;;;;;;0.30;0.30;;;4.80;99.90;;;;;;5056871;28;20433;-89
2023/01/06 00:36:13;;;;;;;0.30;0.30;;;4.80;99.90;;;;;;5055775;28;20444;-89
2023/01/06 00:38:39;;;;;;;0.30;0.30;;;4.90;99.90;;;;;;5056794;28;20383;-89
2023/01/06 00:43:56;;;;;;;0.40;0.40;;;4.90;99.90;;;;;;5033650;28;20468;-89
2023/01/06 00:46:25;;;;;;;0.30;0.30;;;4.80;99.90;;;;;;5033410;28;20488;-88
2023/01/06 00:48:51;;;;;;;0.30;0.30;;;4.90;99.90;;;;;;5050069;28;20554;-88
2023/01/06 00:51:16;;;;;;;0.30;0.30;;;4.80;99.90;;;;;;5053727;28;20905;-91
2023/01/06 00:53:42;;;;;;;0.30;0.30;;;4.90;99.90;;;;;;5048072;28;20286;-89
2023/01/06 00:56:07;;;;;;;0.30;0.30;;;4.90;99.90;;;;;;5041201;28;20190;-90
2023/01/06 00:58:33;;;;;;;0.30;0.30;;;4.80;99.90;;;;;;5053691;28;20178;-90
2023/01/06 01:01:03;;;;;;;0.27;0.27;;;4.90;99.90;;;;;;5043868;28;20935;-90
2023/01/06 01:03:30;;;;;;;0.30;0.30;;;4.90;99.90;;;;;;5034880;28;20185;-89
2023/01/06 01:06:00;;;;;;;0.40;0.40;;;4.90;99.90;;;;;;5051376;28;21067;-90
2023/01/06 01:08:26;;;;;;;0.30;0.30;;;4.90;99.90;;;;;;5048565;28;21015;-91
2023/01/06 01:10:52;;;;;;;0.30;0.30;;;4.90;99.90;;;;;;5051766;28;20449;-90
2023/01/06 01:13:17;;;;;;;0.30;0.30;;;4.90;99.90;;;;;;5052700;28;20483;-88
2023/01/06 01:15:43;;;;;;;0.30;0.30;;;4.90;99.90;;;;;;5046466;28;20191;-90
2023/01/06 01:18:09;;;;;;;0.30;0.30;;;4.90;99.90;;;;;;5049981;28;20260;-90
2023/01/06 01:20:35;;;;;;;0.30;0.30;;;4.90;99.90;;;;;;5052274;28;20209;-90
2023/01/06 01:23:00;;;;;;;0.30;0.30;;;4.90;99.90;;;;;;5028866;28;20438;-89
2023/01/06 01:25:26;;;;;;;0.30;0.30;;;4.90;99.90;;;;;;5050821;28;20248;-90
2023/01/06 01:27:51;;;;;;;0.30;0.30;;;5.00;99.90;;;;;;5048139;28;20230;-90
2023/01/06 01:30:19;;;;;;;0.30;0.30;;;5.00;99.90;;;;;;5042632;28;20183;-90
2023/01/06 01:32:45;;;;;;;0.30;0.30;;;4.90;99.90;;;;;;5044901;28;20193;-89
2023/01/06 01:35:11;;;;;;;0.30;0.30;;;5.00;99.90;;;;;;5045030;28;20433;-90
2023/01/06 01:37:37;;;;;;;0.30;0.30;;;5.00;99.90;;;;;;5052172;28;20536;-90
2023/01/06 01:40:03;;;;;;;0.30;0.30;;;5.00;99.90;;;;;;5034955;28;20199;-90
2023/01/06 01:42:28;;;;;;;0.20;0.20;;;5.00;99.90;;;;;;5045455;28;20194;-91
2023/01/06 01:44:59;;;;;;;0.30;0.30;;;5.00;99.90;;;;;;5043634;28;20445;-90
2023/01/06 01:47:41;;;;;;;0.20;0.20;;;5.10;99.90;;;;;;5045799;28;20570;-91
2023/01/06 01:50:19;;;;;;;0.30;0.30;;;5.10;99.90;;;;;;5046870;28;20453;-90
2023/01/06 01:52:47;;;;;;;0.30;0.30;;;5.10;99.90;;;;;;5035006;28;20498;-91
2023/01/06 01:55:14;;;;;;;0.23;0.23;;;5.10;99.90;;;;;;5019992;28;20441;-90
2023/01/06 01:57:47;;;;;;;0.30;0.30;;;5.10;99.90;;;;;;5035033;28;20461;-92
2023/01/06 02:00:13;;;;;;;0.30;0.30;;;5.10;99.90;;;;;;5052719;28;20594;-91
2023/01/06 02:02:40;;;;;;;0.30;0.30;;;5.10;99.90;;;;;;5052598;28;20497;-93
2023/01/06 02:05:06;;;;;;;0.30;0.30;;;5.20;99.90;;;;;;5023127;28;20290;-93
2023/01/06 02:07:32;;;;;;;0.30;0.30;;;5.20;99.90;;;;;;5014510;28;21168;-93
2023/01/06 02:10:12;;;;;;;0.30;0.30;;;5.20;99.90;;;;;;5013635;28;20459;-93
2023/01/06 02:12:38;;;;;;;0.20;0.20;;;5.20;99.90;;;;;;5013815;28;20240;-93
2023/01/06 02:15:14;;;;;;;0.30;0.30;;;5.20;99.90;;;;;;5008879;28;21230;-92
2023/01/06 02:18:18;;;;;;;0.30;0.30;;;5.20;99.90;;;;;;5005630;28;20490;-92
2023/01/06 02:21:09;;;;;;;0.23;0.23;;;5.30;99.90;;;;;;5009818;28;20458;-91
2023/01/06 02:24:05;;;;;;;0.20;0.20;;;5.40;99.90;;;;;;5020011;28;21019;-92
2023/01/06 02:26:56;;;;;;;0.30;0.30;;;5.40;99.90;;;;;;5011709;28;20475;-92
2023/01/06 02:30:01;;;;;;;0.30;0.30;;;5.40;99.90;;;;;;5009274;28;20477;-93
2023/01/06 02:32:35;;;;;;;0.27;0.27;;;5.40;99.90;;;;;;5014385;28;20935;-93
2023/01/06 02:35:26;;;;;;;0.30;0.30;;;5.40;99.90;;;;;;5012817;28;20443;-92
2023/01/06 02:38:01;;;;;;;0.30;0.30;;;5.40;99.90;;;;;;5038156;28;20447;-92
2023/01/06 02:40:56;;;;;;;0.20;0.20;;;5.40;99.90;;;;;;5010677;28;20431;-92
2023/01/06 02:43:36;;;;;;;0.30;0.30;;;5.50;99.90;;;;;;5015966;28;21013;-93
2023/01/06 02:46:39;;;;;;;0.20;0.20;;;5.50;99.90;;;;;;5024406;28;20455;-93
2023/01/06 02:49:07;;;;;;;0.20;0.20;;;5.50;99.90;;;;;;5014319;28;20485;-92
2023/01/06 02:51:45;;;;;;;0.20;0.20;;;5.50;99.90;;;;;;5012934;28;20443;-92
2023/01/06 02:54:31;;;;;;;0.20;0.20;;;5.50;99.90;;;;;;5013112;28;20446;-90
2023/01/06 02:57:13;;;;;;;0.20;0.20;;;5.50;99.90;;;;;;5012753;28;20497;-92
2023/01/06 02:59:45;;;;;;;0.20;0.20;;;5.60;99.90;;;;;;5024668;28;20521;-91
2023/01/06 03:02:11;;;;;;;0.30;0.30;;;5.60;99.90;;;;;;5021114;28;20959;-91
2023/01/06 03:04:42;;;;;;;0.23;0.23;;;5.60;99.90;;;;;;5023846;28;20508;-92
2023/01/06 03:07:09;;;;;;;0.20;0.20;;;5.60;99.90;;;;;;5050792;28;20503;-92
2023/01/06 03:09:37;;;;;;;0.30;0.30;;;5.60;99.90;;;;;;5047093;28;20470;-92
2023/01/06 03:12:11;;;;;;;0.20;0.20;;;5.60;99.90;;;;;;5045645;28;20962;-91
2023/01/06 03:14:43;;;;;;;0.20;0.20;;;5.60;99.90;;;;;;5049922;28;20875;-92
2023/01/06 03:17:09;;;;;;;0.20;0.20;;;5.60;99.90;;;;;;5040045;28;20438;-91
2023/01/06 03:19:34;;;;;;;0.20;0.20;;;5.60;99.90;;;;;;5045108;28;21985;-89
2023/01/06 03:22:01;;;;;;;0.20;0.20;;;5.60;99.90;;;;;;5051103;28;20198;-91
2023/01/06 03:24:27;;;;;;;0.20;0.20;;;5.60;99.90;;;;;;5031166;28;20191;-91
2023/01/06 03:26:53;;;;;;;0.30;0.30;;;5.70;99.90;;;;;;5044798;28;20445;-91
2023/01/06 03:29:21;;;;;;;0.20;0.20;;;5.70;99.90;;;;;;5047511;28;20477;-90
2023/01/06 03:32:23;;;;;;;0.20;0.20;;;5.70;99.90;;;;;;5045618;28;20492;-91
2023/01/06 03:34:58;;;;;;;0.20;0.20;;;5.80;99.90;;;;;;5031761;28;20439;-91
2023/01/06 03:37:43;;;;;;;0.20;0.20;;;5.80;99.90;;;;;;5042043;28;20440;-90
2023/01/06 03:40:20;;;;;;;0.20;0.20;;;5.80;99.90;;;;;;5046517;28;20502;-90
2023/01/06 03:43:14;;;;;;;0.30;0.30;;;5.90;99.90;;;;;;5042390;28;20498;-90
2023/01/06 03:45:49;;;;;;;0.20;0.20;;;5.90;99.90;;;;;;5046891;28;20433;-91
2023/01/06 03:48:52;;;;;;;0.20;0.20;;;5.90;99.90;;;;;;5033907;28;20493;-91
2023/01/06 03:51:42;;;;;;;0.20;0.20;;;5.90;99.90;;;;;;5039642;28;20499;-90
2023/01/06 03:54:19;;;;;;;0.20;0.20;;;5.90;99.90;;;;;;5033853;28;20952;-90
2023/01/06 03:56:50;;;;;;;0.20;0.20;;;5.90;99.90;;;;;;5045472;28;20539;-89
2023/01/06 03:59:25;;;;;;;0.20;0.20;;;5.90;99.90;;;;;;5041710;28;20536;-90
2023/01/06 04:01:50;;;;;;;0.20;0.20;;;6.00;99.90;;;;;;5049423;28;20456;-90
2023/01/06 04:04:17;;;;;;;0.30;0.30;;;6.00;99.90;;;;;;5030951;28;20465;-90
2023/01/06 04:06:43;;;;;;;0.27;0.27;;;6.10;99.90;;;;;;5032289;28;20191;-90
2023/01/06 04:09:08;;;;;;;0.20;0.20;;;6.10;99.90;;;;;;5048745;28;20481;-88
2023/01/06 04:14:19;;;;;;;0.30;0.30;;;6.20;99.90;;;;;;5046618;28;20205;-88
2023/01/06 04:16:44;;;;;;;0.20;0.20;;;6.20;99.90;;;;;;5027470;28;20449;-89
2023/01/06 04:19:10;;;;;;;0.20;0.20;;;6.20;99.90;;;;;;5033381;28;20187;-90
2023/01/06 04:21:35;;;;;;;0.20;0.20;;;6.20;99.90;;;;;;5053073;28;20200;-88
2023/01/06 04:24:01;;;;;;;0.20;0.20;;;6.20;99.90;;;;;;5031841;28;20569;-90
2023/01/06 04:26:26;;;;;;;0.20;0.20;;;6.30;99.90;;;;;;5033558;28;20182;-89
2023/01/06 04:28:52;;;;;;;0.20;0.20;;;6.30;99.90;;;;;;5052466;28;20245;-89
2023/01/06 04:31:17;;;;;;;0.20;0.20;;;6.30;99.90;;;;;;5043843;28;20193;-90
2023/01/06 04:33:43;;;;;;;0.20;0.20;;;6.30;99.90;;;;;;5036244;28;20277;-89
2023/01/06 04:36:09;;;;;;;0.20;0.20;;;6.30;99.90;;;;;;5053682;28;20198;-89
2023/01/06 04:38:34;;;;;;;0.20;0.20;;;6.30;99.90;;;;;;5035332;28;20241;-88
2023/01/06 04:41:00;;;;;;;0.23;0.23;;;6.30;99.90;;;;;;5049547;28;20519;-89
2023/01/06 04:43:25;;;;;;;0.30;0.30;;;6.30;99.90;;;;;;5045656;28;20183;-89
2023/01/06 04:45:51;;;;;;;0.30;0.30;;;6.40;99.90;;;;;;5049927;28;20270;-89
2023/01/06 04:48:17;;;;;;;0.20;0.20;;;6.40;99.90;;;;;;5033098;28;20690;-89
2023/01/06 04:50:42;;;;;;;0.30;0.30;;;6.40;99.90;;;;;;5051147;28;20210;-89
2023/01/06 04:53:09;;;;;;;0.30;0.30;;;6.40;99.90;;;;;;5048209;28;20182;-90
2023/01/06 04:55:38;;;;;;;0.20;0.20;;;6.40;99.90;;;;;;5052112;28;20525;-89
2023/01/06 04:58:03;;;;;;;0.20;0.20;;;6.50;99.90;;;;;;5034105;28;20444;-89
2023/01/06 05:00:29;;;;;;;0.20;0.20;;;6.40;99.90;;;;;;5032598;28;20441;-89
2023/01/06 05:02:54;;;;;;;0.30;0.30;;;6.50;99.90;;;;;;5035576;28;20454;-89
2023/01/06 05:05:20;;;;;;;0.20;0.20;;;6.50;99.90;;;;;;5051194;28;20248;-89
2023/01/06 05:07:46;;;;;;;0.20;0.20;;;6.50;99.90;;;;;;5049715;28;20218;-90
2023/01/06 05:10:12;;;;;;;0.20;0.20;;;6.50;99.90;;;;;;5039012;28;20454;-89
2023/01/06 05:12:38;;;;;;;0.30;0.30;;;6.50;99.90;;;;;;5035288;28;20180;-90
2023/01/06 05:15:04;;;;;;;0.20;0.20;;;6.60;99.90;;;;;;5052184;28;20842;-91
2023/01/06 05:17:29;;;;;;;0.20;0.20;;;6.60;99.90;;;;;;5029020;28;20192;-89
2023/01/06 05:19:55;;;;;;;0.23;0.23;;;6.60;99.90;;;;;;5053590;28;20437;-89
2023/01/06 05:22:21;;;;;;;0.23;0.23;;;6.60;99.90;;;;;;5033052;28;20221;-90
2023/01/06 05:24:46;;;;;;;0.20;0.20;;;6.60;99.90;;;;;;5053154;28;20174;-90
2023/01/06 05:27:11;;;;;;;0.20;0.20;;;6.70;99.90;;;;;;5034309;28;20229;-90
2023/01/06 05:29:37;;;;;;;0.20;0.20;;;6.70;99.90;;;;;;5032971;28;20190;-90
2023/01/06 05:32:04;;;;;;;0.27;0.27;;;6.70;99.90;;;;;;5034974;28;20833;-90
2023/01/06 05:34:29;;;;;;;0.20;0.20;;;6.70;99.90;;;;;;5033598;28;20214;-89
2023/01/06 05:36:55;;;;;;;0.20;0.20;;;6.80;99.90;;;;;;5032720;28;20473;-89
2023/01/06 05:39:21;;;;;;;0.20;0.20;;;6.80;99.90;;;;;;5032746;28;20186;-91
2023/01/06 05:41:47;;;;;;;0.20;0.20;;;6.80;99.90;;;;;;5033756;28;20459;-91
2023/01/06 05:44:12;;;;;;;0.20;0.20;;;6.90;99.90;;;;;;5052059;28;20967;-89
2023/01/06 05:46:38;;;;;;;0.20;0.20;;;6.90;99.90;;;;;;5046586;28;20194;-90
2023/01/06 05:49:03;;;;;;;0.20;0.20;;;6.90;99.90;;;;;;5051991;28;20306;-90
2023/01/06 05:51:29;;;;;;;0.20;0.20;;;7.00;99.90;;;;;;5048438;28;20951;-89
2023/01/06 05:53:54;;;;;;;0.30;0.30;;;7.00;99.90;;;;;;5028991;28;20278;-90
2023/01/06 05:56:21;;;;;;;0.30;0.30;;;7.10;99.90;;;;;;5042786;28;20195;-89
2023/01/06 05:58:50;;;;;;;0.20;0.20;;;7.10;99.90;;;;;;5043728;28;20221;-89
2023/01/06 06:01:21;;;;;;;0.30;0.30;;;7.10;99.90;;;;;;5045232;28;20425;-89
2023/01/06 06:03:48;;;;;;;0.20;0.20;;;7.10;99.90;;;;;;5046563;28;21118;-90
2023/01/06 06:06:14;;;;;;;0.20;0.20;;;7.10;99.90;;;;;;5048442;28;20532;-89
2023/01/06 06:08:39;;;;;;;0.20;0.20;;;7.20;99.90;;;;;;5028948;28;20597;-89
2023/01/06 06:11:08;;;;;;;0.30;0.30;;;7.20;99.90;;;;;;5030311;28;20190;-87
2023/01/06 06:13:34;;;;;;;0.20;0.20;;;7.20;99.90;;;;;;5049202;28;20535;-88
2023/01/06 06:16:10;;;;;;;0.20;0.20;;;7.20;99.90;;;;;;5031748;28;21075;-88
2023/01/06 06:18:43;;;;;;;0.20;0.20;;;7.30;99.90;;;;;;5039761;28;20193;-87
2023/01/06 06:21:14;;;;;;;0.20;0.20;;;7.40;99.90;;;;;;5045736;28;20433;-87
2023/01/06 06:23:40;;;;;;;0.20;0.20;;;7.40;99.90;;;;;;5050941;28;20429;-87
2023/01/06 06:26:06;;;;;;;0.20;0.20;;;7.50;99.90;;;;;;5046618;28;20433;-86
2023/01/06 06:28:33;;;;;;;0.20;0.20;;;7.50;99.90;;;;;;5039208;28;20258;-86
2023/01/06 06:31:06;;;;;;;0.20;0.20;;;7.60;99.90;;;;;;5044863;28;20445;-87
2023/01/06 06:33:32;;;;;;;0.20;0.20;;;7.60;99.90;;;;;;5028897;28;20500;-87
2023/01/06 06:35:59;;;;;;;0.20;0.20;;;7.60;99.90;;;;;;5047241;28;20473;-84
2023/01/06 06:38:24;;;;;;;0.20;0.20;;;7.60;99.90;;;;;;5045312;28;20461;-86
2023/01/06 06:40:50;;;;;;;0.20;0.20;;;7.60;99.90;;;;;;5045816;28;20487;-87
2023/01/06 06:43:15;;;;;;;0.20;0.20;;;7.70;99.90;;;;;;5047922;28;20724;-87
2023/01/06 06:45:44;;;;;;;0.20;0.20;;;7.80;99.90;;;;;;5027084;28;20213;-88
2023/01/06 06:48:10;;;;;;;0.20;0.20;;;7.80;99.90;;;;;;5023247;28;20228;-86
2023/01/06 06:50:35;;;;;;;0.20;0.20;;;7.90;99.90;;;;;;5047472;28;20441;-85
2023/01/06 06:53:01;;;;;;;0.20;0.20;;;7.80;99.90;;;;;;5046632;28;20278;-84
2023/01/06 06:55:27;;;;;;;0.20;0.20;;;7.90;99.90;;;;;;5040953;28;20718;-86
2023/01/06 06:57:52;;;;;;;0.20;0.20;;;7.90;99.90;;;;;;5028501;28;20197;-88
2023/01/06 07:00:18;;;;;;;0.20;0.20;;;8.00;99.90;;;;;;5024569;28;20429;-87
2023/01/06 07:02:47;;;;;;;0.20;0.20;;;8.00;99.90;;;;;;5013885;28;20847;-86
2023/01/06 07:05:13;;;;;;;0.30;0.30;;;8.00;99.90;;;;;;5025368;28;20714;-87
2023/01/06 07:07:38;;;;;;;0.20;0.20;;;8.10;99.90;;;;;;5032325;28;20492;-85
2023/01/06 07:10:04;;;;;;;0.20;0.20;;;8.10;99.90;;;;;;5029889;28;20191;-83
2023/01/06 07:12:30;;;;;;;0.20;0.20;;;8.00;99.90;;;;;;5040144;28;20183;-86
2023/01/06 07:14:55;;;;;;;0.20;0.20;;;8.10;99.90;;;;;;5040276;28;20499;-86
2023/01/06 07:17:27;;;;;;;0.20;0.20;;;8.10;99.90;;;;;;5046066;28;20413;-86
2023/01/06 07:19:53;;;;;;;0.20;0.20;;;8.10;99.90;;;;;;5030806;28;20205;-86
2023/01/06 07:22:19;;;;;;;0.20;0.20;;;8.10;99.90;;;;;;5043030;28;20452;-82
2023/01/06 07:24:45;;;;;;;0.20;0.20;;;8.10;99.90;;;;;;5040776;28;20536;-85
2023/01/06 07:27:10;;;;;;;0.30;0.30;;;8.10;99.90;;;;;;5025142;28;20180;-86
2023/01/06 07:29:36;;;;;;;0.20;0.20;;;8.10;99.90;;;;;;5040816;28;20240;-86
2023/01/06 07:32:01;;;;;;;0.27;0.27;;;8.20;99.90;;;;;;5044188;28;20696;-86
2023/01/06 07:34:27;;;;;;;0.20;0.20;;;8.30;99.90;;;;;;5041676;28;20195;-84
2023/01/06 07:36:52;;;;;;;0.23;0.23;;;8.20;99.90;;;;;;5037415;28;20194;-89
2023/01/06 07:39:18;;;;;;;0.20;0.20;;;8.30;99.90;;;;;;5023853;28;20182;-84
2023/01/06 07:41:43;;;;;;;0.20;0.20;;;8.40;99.90;;;;;;5047391;28;20529;-85
2023/01/06 07:44:09;;;;;;;0.20;0.20;;;8.30;99.90;;;;;;5043476;28;20189;-85
2023/01/06 07:46:34;;;;;;;0.30;0.30;;;8.30;99.90;;;;;;5040132;28;20265;-86
2023/01/06 07:49:00;;;;;;;0.20;0.20;;;8.30;99.90;;;;;;5039766;28;20714;-85
2023/01/06 07:51:25;;;;;;;0.20;0.20;;;8.30;99.90;;;;;;5021143;28;20185;-81
2023/01/06 07:53:51;;;;;;;0.20;0.20;;;8.30;99.90;;;;;;5033126;28;20713;-88
2023/01/06 07:56:16;;;;;;;0.20;0.20;;;8.30;99.90;;;;;;5044170;28;20901;-84
2023/01/06 07:58:42;;;;;;;0.20;0.20;;;8.30;99.90;;;;;;5043324;28;20202;-87
2023/01/06 08:01:08;;;;;;;0.30;0.30;;;8.30;99.90;;;;;;5042852;28;20196;-82
2023/01/06 08:03:33;;;;;;;0.20;0.20;;;8.30;99.90;;;;;;5030035;28;20286;-82
2023/01/06 08:05:59;;;;;;;0.30;0.30;;;8.30;99.90;;;;;;5040535;28;20553;-82
2023/01/06 08:08:24;;;;;;;0.20;0.20;;;8.30;99.90;;;;;;5028452;28;20222;-81
2023/01/06 08:10:50;;;;;;;0.20;0.20;;;8.30;99.90;;;;;;5034530;28;20186;-82
2023/01/06 08:13:15;;;;;;;0.20;0.20;;;8.30;99.90;;;;;;5048120;28;20179;-81
2023/01/06 08:15:41;;;;;;;0.20;0.20;;;8.30;99.90;;;;;;5033068;28;20179;-82
2023/01/06 08:18:07;;;;;;;0.23;0.23;;;8.30;99.90;;;;;;5043274;28;21077;-82
2023/01/06 08:20:33;;;;;;;0.30;0.30;;;8.40;99.90;;;;;;5037933;28;20651;-82
2023/01/06 08:22:59;;;;;;;0.20;0.20;;;8.30;99.90;;;;;;5039615;28;20191;-83
2023/01/06 08:25:24;;;;;;;0.20;0.20;;;8.40;99.90;;;;;;5017124;28;20656;-87
2023/01/06 08:27:50;;;;;;;0.20;0.20;;;8.40;99.90;;;;;;5046722;28;20475;-84
2023/01/06 08:30:20;;;;;;;0.20;0.20;;;8.40;99.90;;;;;;5050227;28;20651;-85
2023/01/06 08:32:46;;;;;;;0.20;0.20;;;8.40;99.90;;;;;;5046222;28;20662;-84
2023/01/06 08:35:12;;;;;;;0.27;0.27;;;8.40;99.90;;;;;;5049259;28;20444;-82
2023/01/06 08:37:37;;;;;;;0.20;0.20;;;8.40;99.90;;;;;;5046188;28;20535;-80
2023/01/06 08:40:03;;;;;;;0.20;0.20;;;8.40;99.90;;;;;;5029532;28;20541;-83
2023/01/06 08:42:29;;;;;;;0.20;0.20;;;8.40;99.90;;;;;;5021000;28;21713;-80
2023/01/06 08:44:54;;;;;;;0.20;0.20;;;8.40;99.90;;;;;;5036506;28;20445;-79
2023/01/06 08:47:20;;;;;;;0.20;0.20;;;8.40;99.90;;;;;;5025787;28;20201;-87
2023/01/06 08:49:45;;;;;;;0.20;0.20;;;8.40;99.90;;;;;;5026790;28;20206;-85
2023/01/06 08:52:11;;;;;;;0.20;0.20;;;8.40;99.90;;;;;;5052655;28;20689;-80
2023/01/06 08:54:36;;;;;;;0.20;0.20;;;8.50;99.90;;;;;;5048954;28;20202;-81
2023/01/06 08:57:02;;;;;;;0.20;0.20;;;8.40;99.90;;;;;;5042270;28;20190;-81
2023/01/06 08:59:27;;;;;;;0.20;0.20;;;8.50;99.90;;;;;;5044898;28;20191;-81
2023/01/06 09:01:53;;;;;;;0.20;0.20;;;8.50;99.90;;;;;;5044140;28;20191;-81
2023/01/06 09:04:19;;;;;;;0.20;0.20;;;8.50;99.90;;;;;;5038396;28;20250;-82
2023/01/06 09:06:46;;;;;;;0.20;0.20;;;8.50;99.90;;;;;;5037423;28;20198;-81
2023/01/06 09:09:13;;;;;;;0.20;0.20;;;8.60;99.90;;;;;;5027369;28;20217;-81
2023/01/06 09:11:43;;;;;;;0.20;0.20;;;8.50;99.90;;;;;;5042206;28;20941;-81
2023/01/06 09:14:10;;;;;;;0.20;0.20;;;8.50;99.90;;;;;;5041720;28;20441;-81
2023/01/06 09:16:36;;;;;;;0.20;0.20;;;8.50;99.90;;;;;;5041790;28;20433;-80
2023/01/06 09:19:01;;;;;;;0.20;0.20;;;8.60;99.90;;;;;;5044853;28;20456;-81
2023/01/06 09:21:27;;;;;;;0.20;0.20;;;8.60;99.90;;;;;;5033388;28;20266;-81
2023/01/06 09:23:52;;;;;;;0.23;0.23;;;8.60;99.90;;;;;;5052422;28;20194;-79
2023/01/06 09:26:20;;;;;;;0.20;0.20;;;8.60;99.90;;;;;;5038402;28;20185;-80
2023/01/06 09:28:46;;;;;;;0.20;0.20;;;8.60;99.90;;;;;;5047159;28;20313;-81
2023/01/06 09:31:11;;;;;;;0.20;0.20;;;8.50;99.90;;;;;;5048385;28;20532;-81
2023/01/06 09:33:37;;;;;;;0.20;0.20;;;8.60;99.90;;;;;;5049208;28;20449;-81
2023/01/06 09:36:03;;;;;;;0.20;0.20;;;8.60;99.90;;;;;;5040325;28;20211;-81
2023/01/06 09:38:31;;;;;;;0.20;0.20;;;8.60;99.90;;;;;;5034793;28;20676;-81
2023/01/06 09:41:36;;;;;;;0.20;0.20;;;8.60;99.90;;;;;;5030023;28;20583;-81
2023/01/06 09:44:16;;;;;;;0.20;0.20;;;8.70;99.90;;;;;;5046519;28;20445;-80
2023/01/06 09:46:45;;;;;;;0.20;0.20;;;8.60;99.90;;;;;;5040919;28;20448;-81
2023/01/06 09:49:32;;;;;;;0.20;0.20;;;8.70;99.90;;;;;;5042362;28;20485;-81
2023/01/06 09:52:09;;;;;;;0.20;0.20;;;8.70;99.90;;;;;;5045388;28;20448;-81
2023/01/06 09:54:42;;;;;;;0.20;0.20;;;8.70;99.90;;;;;;5043327;28;20441;-81
2023/01/06 09:57:25;;;;;;;0.20;0.20;;;8.70;99.90;;;;;;5042667;28;20531;-81
2023/01/06 10:00:04;;;;;;;0.20;0.20;;;8.70;99.90;;;;;;5048041;28;20444;-79
2023/01/06 10:02:36;;;;;;;0.20;0.20;;;8.70;99.90;;;;;;5041140;28;20494;-81
2023/01/06 10:05:15;;;;;;;0.30;0.30;;;8.80;99.90;;;;;;5049523;28;20527;-81
2023/01/06 10:08:20;;;;;;;0.20;0.20;;;8.80;99.90;;;;;;5028782;28;20482;-81
2023/01/06 10:11:34;;;;;;;0.20;0.20;;;8.80;99.90;;;;;;4966563;28;20496;-81
2023/01/06 10:14:38;;;;;;;0.20;0.20;;;8.70;99.90;;;;;;4960029;28;20906;-81
2023/01/06 10:17:21;;;;;;;0.20;0.20;;;8.80;99.90;;;;;;5049819;28;20441;-81
2023/01/06 10:20:21;;;;;;;0.20;0.20;;;8.80;99.90;;;;;;5049712;28;21073;-81
2023/01/06 10:23:07;;;;;;;0.20;0.20;;;8.80;99.90;;;;;;5027984;28;20919;-81
2023/01/06 10:25:43;;;;;;;0.20;0.20;;;8.80;99.90;;;;;;5046145;28;20452;-80
2023/01/06 10:28:34;;;;;;;0.20;0.20;;;8.80;99.90;;;;;;5036893;28;20487;-81
2023/01/06 10:31:04;;;;;;;0.20;0.20;;;8.70;99.90;;;;;;5023538;28;20558;-81
2023/01/06 10:33:33;;;;;;;0.20;0.20;;;8.80;99.90;;;;;;5031149;28;20437;-81
2023/01/06 10:36:00;;;;;;;0.20;0.20;;;8.90;99.90;;;;;;5050384;28;20940;-81
2023/01/06 10:38:37;;;;;;;0.20;0.20;;;8.80;99.90;;;;;;5047411;28;20524;-81
2023/01/06 10:41:21;;;;;;;0.20;0.20;;;8.90;99.90;;;;;;5042311;28;20465;-81
2023/01/06 10:43:46;;;;;;;0.20;0.20;;;9.00;99.90;;;;;;5023504;28;20473;-81
2023/01/06 10:46:14;;;;;;;0.20;0.20;;;9.30;99.90;;;;;;5042766;28;20478;-81
2023/01/06 10:48:39;;;;;;;0.20;0.20;;;9.60;99.90;;;;;;5039807;28;20219;-81
2023/01/06 10:51:32;;;;;;;0.20;0.20;;;10.20;99.90;;;;;;5047862;28;20514;-81
2023/01/06 10:54:03;;;;;;;0.20;0.20;;;10.60;99.90;;;;;;5046870;28;20191;-79
2023/01/06 10:56:29;;;;;;;0.20;0.20;;;10.90;99.90;;;;;;5048362;28;20453;-81
2023/01/06 10:59:07;;;;;;;0.20;0.20;;;10.70;99.90;;;;;;5045958;28;20683;-78
2023/01/06 11:01:34;;;;;;;0.20;0.20;;;10.50;99.90;;;;;;5025693;28;20438;-80
2023/01/06 11:04:14;;;;;;;0.20;0.20;;;10.10;99.90;;;;;;5045192;28;20475;-80
2023/01/06 11:07:00;;;;;;;0.20;0.20;;;10.30;99.90;;;;;;5044201;28;20448;-80
2023/01/06 11:09:35;;;;;;;0.20;0.20;;;10.00;99.90;;;;;;5046914;28;20505;-81
2023/01/06 11:12:08;;;;;;;0.20;0.20;;;9.70;99.90;;;;;;5037361;28;20852;-80
2023/01/06 11:14:34;;;;;;;0.20;0.20;;;9.40;99.90;;;;;;5030557;28;20856;-80
2023/01/06 11:17:03;;;;;;;0.20;0.20;;;9.20;99.90;;;;;;5046539;28;20660;-81
2023/01/06 11:19:57;;;;;;;0.20;0.20;;;9.00;99.90;;;;;;5046231;28;20445;-80
2023/01/06 11:22:35;;;;;;;0.20;0.20;;;8.90;99.90;;;;;;5034122;28;20551;-87
2023/01/06 11:25:03;;;;;;;0.20;0.20;;;8.70;99.90;;;;;;5031753;28;20515;-86
2023/01/06 11:27:28;;;;;;;0.20;0.20;;;8.60;99.90;;;;;;5034362;28;20453;-88
2023/01/06 11:29:54;;;;;;;0.20;0.20;;;8.50;99.90;;;;;;5043163;28;20809;-87
2023/01/06 11:32:28;;;;;;;0.20;0.20;;;8.50;99.90;;;;;;5045450;28;20191;-86
2023/01/06 11:35:00;;;;;;;0.20;0.20;;;8.50;99.90;;;;;;5022284;28;20255;-86
2023/01/06 11:37:41;;;;;;;0.20;0.20;;;8.50;99.90;;;;;;5048263;28;20443;-87
2023/01/06 11:40:16;;;;;;;0.20;0.20;;;8.50;99.90;;;;;;5028759;28;20452;-87
2023/01/06 11:42:42;;;;;;;0.20;0.20;;;8.50;99.90;;;;;;5042581;28;20479;-87
2023/01/06 11:45:33;;;;;;;0.20;0.20;;;8.50;99.90;;;;;;5041693;28;20445;-86
2023/01/06 11:48:00;;;;;;;0.20;0.20;;;8.60;99.90;;;;;;5044912;28;20288;-86
2023/01/06 11:50:25;;;;;;;0.20;0.20;;;9.00;99.90;;;;;;5030091;28;20445;-86
2023/01/06 11:53:02;;;;;;;0.20;0.20;;;9.20;99.90;;;;;;5047862;28;20539;-86
2023/01/06 11:55:29;;;;;;;0.20;0.20;;;10.10;99.90;;;;;;5030322;28;20191;-85
2023/01/06 11:58:12;;;;;;;0.20;0.20;;;10.50;99.90;;;;;;5025507;28;20452;-87
2023/01/06 12:00:48;;;;;;;0.20;0.20;;;9.90;99.90;;;;;;5044491;28;21211;-89
2023/01/06 12:03:36;;;;;;;0.20;0.20;;;9.60;99.90;;;;;;5047405;28;20530;-89
2023/01/06 12:06:44;;;;;;;0.20;0.20;;;9.20;99.90;;;;;;5048465;28;20987;-90
2023/01/06 12:09:15;;;;;;;0.30;0.30;;;9.00;99.90;;;;;;4970251;28;20488;-89
2023/01/06 12:11:49;;;;;;;0.20;0.20;;;9.00;99.90;;;;;;4980498;28;20455;-89
2023/01/06 12:14:16;;;;;;;0.20;0.20;;;8.80;99.90;;;;;;5017306;28;20444;-90
2023/01/06 12:17:00;;;;;;;0.20;0.20;;;8.80;99.90;;;;;;5041239;28;20482;-90
2023/01/06 12:19:35;;;;;;;0.20;0.20;;;8.60;99.90;;;;;;5046082;28;20465;-90
2023/01/06 12:22:02;;;;;;;0.20;0.20;;;8.60;99.90;;;;;;5049998;28;20476;-89
2023/01/06 12:24:31;;;;;;;0.10;0.10;;;8.50;99.90;;;;;;5048097;28;20441;-87
2023/01/06 12:26:59;;;;;;;0.20;0.20;;;8.60;99.90;;;;;;5046487;28;20468;-88
2023/01/06 12:29:26;;;;;;;0.20;0.20;;;8.50;99.90;;;;;;5047553;28;20488;-90
2023/01/06 12:32:07;;;;;;;0.30;0.30;;;8.50;99.90;;;;;;5030916;28;20511;-87
2023/01/06 12:34:41;;;;;;;0.20;0.20;;;8.50;99.90;;;;;;5047998;28;20967;-89
2023/01/06 12:37:27;;;;;;;0.20;0.20;;;8.50;99.90;;;;;;5044082;28;20437;-89
2023/01/06 12:40:13;;;;;;;0.20;0.20;;;8.50;99.90;;;;;;5048924;28;20456;-89
2023/01/06 12:43:14;;;;;;;0.20;0.20;;;8.50;99.90;;;;;;5033733;28;20471;-80
2023/01/06 12:45:53;;;;;;;0.20;0.20;;;8.40;99.90;;;;;;5021639;28;20445;-84
2023/01/06 12:48:33;;;;;;;0.20;0.20;;;8.50;99.90;;;;;;5042569;28;20484;-83
2023/01/06 12:51:06;;;;;;;0.20;0.20;;;8.50;99.90;;;;;;5028431;28;20535;-86
2023/01/06 12:53:38;;;;;;;0.20;0.20;;;8.50;99.90;;;;;;5045829;28;20449;-88
2023/01/06 12:56:32;;;;;;;0.20;0.20;;;8.50;99.90;;;;;;5043686;28;20426;-93
2023/01/06 12:59:25;;;;;;;0.20;0.20;;;8.50;99.90;;;;;;5046535;28;21035;-89
2023/01/06 13:02:18;;;;;;;0.20;0.20;;;8.40;99.90;;;;;;5044094;28;20517;-89
2023/01/06 13:04:59;;;;;;;0.20;0.20;;;8.40;99.90;;;;;;5042502;28;20991;-83
2023/01/06 13:07:35;;;;;;;0.20;0.20;;;8.40;99.90;;;;;;5036309;28;21031;-85
2023/01/06 13:10:25;;;;;;;0.20;0.20;;;8.30;99.90;;;;;;5040005;28;20526;-81
2023/01/06 13:12:57;;;;;;;0.20;0.20;;;8.40;99.90;;;;;;5041080;28;20448;-82
2023/01/06 13:15:28;;;;;;;0.20;0.20;;;8.30;99.90;;;;;;5023997;28;20440;-81
2023/01/06 13:18:20;;;;;;;0.20;0.20;;;8.40;99.90;;;;;;5047421;28;20438;-81
2023/01/06 13:20:57;;;;;;;0.20;0.20;;;8.40;99.90;;;;;;5032958;28;20442;-79
2023/01/06 13:23:47;;;;;;;0.20;0.20;;;8.40;99.90;;;;;;5032541;28;21713;-85
2023/01/06 13:26:28;;;;;;;0.20;0.20;;;8.30;99.90;;;;;;5035336;28;20524;-85